sensor_id;sensor_type;location;lat;lon;timestamp;temperature;humidity
2202;DHT22;1107;48.654;9.250;2023-01-19T00:01:27;-2.10;1.00
2202;DHT22;1107;48.654;9.250;2023-01-19T00:03:54;-2.10;1.00
2202;DHT22;1107;48.654;9.250;2023-01-19T00:06:22;-2.20;1.00
2202;DHT22;1107;48.654;9.250;2023-01-19T00:08:49;-2.20;1.00
2202;DHT22;1107;48.654;9.250;2023-01-19T00:11:16;-2.10;1.00
2202;DHT22;1107;48.654;9.250;2023-01-19T00:13:43;-2.20;1.00
2202;DHT22;1107;48.654;9.250;2023-01-19T00:16:14;-2.20;1.00
2202;DHT22;1107;48.654;9.250;2023-01-19T00:18:41;-2.20;1.00
2202;DHT22;1107;48.654;9.250;2023-01-19T00:21:08;-2.20;1.00
2202;DHT22;1107;48.654;9.250;2023-01-19T00:23:36;-2.20;1.00
2202;DHT22;1107;48.654;9.250;2023-01-19T00:26:03;-2.20;1.00
2202;DHT22;1107;48.654;9.250;2023-01-19T00:28:30;-2.30;1.00
2202;DHT22;1107;48.654;9.250;2023-01-19T00:30:56;-2.30;1.00
2202;DHT22;1107;48.654;9.250;2023-01-19T00:33:23;-2.30;1.00
2202;DHT22;1107;48.654;9.250;2023-01-19T00:35:50;-2.30;1.00
2202;DHT22;1107;48.654;9.250;2023-01-19T00:38:19;-2.30;1.00
2202;DHT22;1107;48.654;9.250;2023-01-19T00:40:47;-2.30;1.00
2202;DHT22;1107;48.654;9.250;2023-01-19T00:43:14;-2.30;1.00
2202;DHT22;1107;48.654;9.250;2023-01-19T00:45:40;-2.40;1.00
2202;DHT22;1107;48.654;9.250;2023-01-19T00:48:07;-2.40;1.00
2202;DHT22;1107;48.654;9.250;2023-01-19T00:50:34;-2.30;1.00
2202;DHT22;1107;48.654;9.250;2023-01-19T00:53:00;-2.30;1.00
2202;DHT22;1107;48.654;9.250;2023-01-19T00:55:27;-2.30;1.00
2202;DHT22;1107;48.654;9.250;2023-01-19T00:57:56;-2.30;1.00
2202;DHT22;1107;48.654;9.250;2023-01-19T01:00:23;-2.30;1.00
2202;DHT22;1107;48.654;9.250;2023-01-19T01:02:50;-2.30;1.00
2202;DHT22;1107;48.654;9.250;2023-01-19T01:05:17;-2.30;1.00
2202;DHT22;1107;48.654;9.250;2023-01-19T01:07:45;-2.30;1.00
2202;DHT22;1107;48.654;9.250;2023-01-19T01:10:14;-2.40;1.00
2202;DHT22;1107;48.654;9.250;2023-01-19T01:12:42;-2.40;1.00
2202;DHT22;1107;48.654;9.250;2023-01-19T01:15:11;-2.40;1.00
2202;DHT22;1107;48.654;9.250;2023-01-19T01:17:38;-2.40;1.00
2202;DHT22;1107;48.654;9.250;2023-01-19T01:20:12;-2.30;1.00
2202;DHT22;1107;48.654;9.250;2023-01-19T01:22:41;-2.40;1.00
2202;DHT22;1107;48.654;9.250;2023-01-19T01:25:09;-2.30;1.00
2202;DHT22;1107;48.654;9.250;2023-01-19T01:27:36;-2.30;1.00
2202;DHT22;1107;48.654;9.250;2023-01-19T01:30:03;-2.30;1.00
2202;DHT22;1107;48.654;9.250;2023-01-19T01:32:31;-2.30;1.00
2202;DHT22;1107;48.654;9.250;2023-01-19T01:34:58;-2.30;1.00
2202;DHT22;1107;48.654;9.250;2023-01-19T01:37:25;-2.40;1.00
2202;DHT22;1107;48.654;9.250;2023-01-19T01:39:52;-2.40;1.00
2202;DHT22;1107;48.654;9.250;2023-01-19T01:42:19;-2.40;1.00
2202;DHT22;1107;48.654;9.250;2023-01-19T01:44:50;-2.40;1.00
2202;DHT22;1107;48.654;9.250;2023-01-19T01:47:19;-2.40;1.00
2202;DHT22;1107;48.654;9.250;2023-01-19T01:49:50;-2.40;1.00
2202;DHT22;1107;48.654;9.250;2023-01-19T01:52:18;-2.40;1.00
2202;DHT22;1107;48.654;9.250;2023-01-19T01:54:45;-2.40;1.00
2202;DHT22;1107;48.654;9.250;2023-01-19T01:57:12;-2.40;1.00
2202;DHT22;1107;48.654;9.250;2023-01-19T01:59:40;-2.40;1.00
2202;DHT22;1107;48.654;9.250;2023-01-19T02:02:08;-2.40;1.00
2202;DHT22;1107;48.654;9.250;2023-01-19T02:04:56;-2.40;1.00
2202;DHT22;1107;48.654;9.250;2023-01-19T02:07:25;-2.40;1.00
2202;DHT22;1107;48.654;9.250;2023-01-19T02:10:11;-2.40;1.00
2202;DHT22;1107;48.654;9.250;2023-01-19T02:12:55;-2.40;1.00
2202;DHT22;1107;48.654;9.250;2023-01-19T02:15:40;-2.40;1.00
2202;DHT22;1107;48.654;9.250;2023-01-19T02:18:06;-2.40;1.00
2202;DHT22;1107;48.654;9.250;2023-01-19T02:20:34;-2.40;1.00
2202;DHT22;1107;48.654;9.250;2023-01-19T02:23:02;-2.50;1.00
2202;DHT22;1107;48.654;9.250;2023-01-19T02:25:32;-2.50;1.00
2202;DHT22;1107;48.654;9.250;2023-01-19T02:27:59;-2.50;1.00
2202;DHT22;1107;48.654;9.250;2023-01-19T02:30:26;-2.40;1.00
2202;DHT22;1107;48.654;9.250;2023-01-19T02:32:53;-2.50;1.00
2202;DHT22;1107;48.654;9.250;2023-01-19T02:35:20;-2.50;1.00
2202;DHT22;1107;48.654;9.250;2023-01-19T02:37:47;-2.50;1.00
2202;DHT22;1107;48.654;9.250;2023-01-19T02:40:15;-2.50;1.00
2202;DHT22;1107;48.654;9.250;2023-01-19T02:42:45;-2.60;1.00
2202;DHT22;1107;48.654;9.250;2023-01-19T02:45:14;-2.60;1.00
2202;DHT22;1107;48.654;9.250;2023-01-19T02:47:43;-2.70;1.00
2202;DHT22;1107;48.654;9.250;2023-01-19T02:52:57;-2.80;1.00
2202;DHT22;1107;48.654;9.250;2023-01-19T02:55:25;-2.80;1.00
2202;DHT22;1107;48.654;9.250;2023-01-19T02:57:57;-2.90;1.00
2202;DHT22;1107;48.654;9.250;2023-01-19T03:00:29;-2.90;1.00
2202;DHT22;1107;48.654;9.250;2023-01-19T03:03:08;-2.90;1.00
2202;DHT22;1107;48.654;9.250;2023-01-19T03:05:42;-2.90;1.00
2202;DHT22;1107;48.654;9.250;2023-01-19T03:08:15;-3.00;1.00
2202;DHT22;1107;48.654;9.250;2023-01-19T03:10:46;-3.00;1.00
2202;DHT22;1107;48.654;9.250;2023-01-19T03:13:20;-3.00;1.00
2202;DHT22;1107;48.654;9.250;2023-01-19T03:15:53;-3.00;1.00
2202;DHT22;1107;48.654;9.250;2023-01-19T03:18:21;-3.00;1.00
2202;DHT22;1107;48.654;9.250;2023-01-19T03:20:51;-3.00;1.00
2202;DHT22;1107;48.654;9.250;2023-01-19T03:23:18;-3.10;1.00
2202;DHT22;1107;48.654;9.250;2023-01-19T03:25:46;-3.10;1.00
2202;DHT22;1107;48.654;9.250;2023-01-19T03:28:13;-3.10;1.00
2202;DHT22;1107;48.654;9.250;2023-01-19T03:30:43;-3.20;1.00
2202;DHT22;1107;48.654;9.250;2023-01-19T03:33:15;-3.20;1.00
2202;DHT22;1107;48.654;9.250;2023-01-19T03:35:44;-3.10;1.00
2202;DHT22;1107;48.654;9.250;2023-01-19T03:38:15;-3.20;1.00
2202;DHT22;1107;48.654;9.250;2023-01-19T03:40:42;-3.20;1.00
2202;DHT22;1107;48.654;9.250;2023-01-19T03:43:09;-3.20;1.00
2202;DHT22;1107;48.654;9.250;2023-01-19T03:45:37;-3.20;1.00
2202;DHT22;1107;48.654;9.250;2023-01-19T03:48:06;-3.20;1.00
2202;DHT22;1107;48.654;9.250;2023-01-19T03:50:32;-3.20;1.00
2202;DHT22;1107;48.654;9.250;2023-01-19T03:53:00;-3.20;1.00
2202;DHT22;1107;48.654;9.250;2023-01-19T03:55:28;-3.20;1.00
2202;DHT22;1107;48.654;9.250;2023-01-19T03:57:55;-3.30;1.00
2202;DHT22;1107;48.654;9.250;2023-01-19T04:00:21;-3.30;1.00
2202;DHT22;1107;48.654;9.250;2023-01-19T04:02:48;-3.30;1.00
2202;DHT22;1107;48.654;9.250;2023-01-19T04:05:16;-3.20;1.00
2202;DHT22;1107;48.654;9.250;2023-01-19T04:07:43;-3.30;1.00
2202;DHT22;1107;48.654;9.250;2023-01-19T04:10:10;-3.20;1.00
2202;DHT22;1107;48.654;9.250;2023-01-19T04:12:37;-3.20;1.00
2202;DHT22;1107;48.654;9.250;2023-01-19T04:15:04;-3.20;1.00
2202;DHT22;1107;48.654;9.250;2023-01-19T04:17:31;-3.20;1.00
2202;DHT22;1107;48.654;9.250;2023-01-19T04:19:58;-3.20;1.00
2202;DHT22;1107;48.654;9.250;2023-01-19T04:22:26;-3.20;1.00
2202;DHT22;1107;48.654;9.250;2023-01-19T04:24:53;-3.20;1.00
2202;DHT22;1107;48.654;9.250;2023-01-19T04:27:21;-3.10;1.00
2202;DHT22;1107;48.654;9.250;2023-01-19T04:29:47;-3.10;1.00
2202;DHT22;1107;48.654;9.250;2023-01-19T04:32:14;-3.10;1.00
2202;DHT22;1107;48.654;9.250;2023-01-19T04:34:41;-3.00;1.00
2202;DHT22;1107;48.654;9.250;2023-01-19T04:37:08;-3.00;1.00
2202;DHT22;1107;48.654;9.250;2023-01-19T04:39:36;-3.00;1.00
2202;DHT22;1107;48.654;9.250;2023-01-19T04:42:03;-3.00;1.00
2202;DHT22;1107;48.654;9.250;2023-01-19T04:44:30;-3.00;1.00
2202;DHT22;1107;48.654;9.250;2023-01-19T04:46:57;-3.10;1.00
2202;DHT22;1107;48.654;9.250;2023-01-19T04:49:24;-3.10;1.00
2202;DHT22;1107;48.654;9.250;2023-01-19T04:51:51;-3.10;1.00
2202;DHT22;1107;48.654;9.250;2023-01-19T04:54:18;-3.10;1.00
2202;DHT22;1107;48.654;9.250;2023-01-19T04:56:47;-3.00;1.00
2202;DHT22;1107;48.654;9.250;2023-01-19T04:59:13;-3.00;1.00
2202;DHT22;1107;48.654;9.250;2023-01-19T05:01:40;-3.00;1.00
2202;DHT22;1107;48.654;9.250;2023-01-19T05:04:07;-2.90;1.00
2202;DHT22;1107;48.654;9.250;2023-01-19T05:06:33;-2.80;1.00
2202;DHT22;1107;48.654;9.250;2023-01-19T05:09:00;-2.80;1.00
2202;DHT22;1107;48.654;9.250;2023-01-19T05:11:27;-2.70;1.00
2202;DHT22;1107;48.654;9.250;2023-01-19T05:13:55;-2.60;1.00
2202;DHT22;1107;48.654;9.250;2023-01-19T05:16:22;-2.50;1.00
2202;DHT22;1107;48.654;9.250;2023-01-19T05:18:49;-2.50;1.00
2202;DHT22;1107;48.654;9.250;2023-01-19T05:21:16;-2.50;1.00
2202;DHT22;1107;48.654;9.250;2023-01-19T05:23:43;-2.40;1.00
2202;DHT22;1107;48.654;9.250;2023-01-19T05:26:10;-2.50;1.00
2202;DHT22;1107;48.654;9.250;2023-01-19T05:28:37;-2.40;1.00
2202;DHT22;1107;48.654;9.250;2023-01-19T05:31:05;-2.40;1.00
2202;DHT22;1107;48.654;9.250;2023-01-19T05:33:31;-2.40;1.00
2202;DHT22;1107;48.654;9.250;2023-01-19T05:35:58;-2.40;1.00
2202;DHT22;1107;48.654;9.250;2023-01-19T05:38:25;-2.40;1.00
2202;DHT22;1107;48.654;9.250;2023-01-19T05:40:55;-2.30;1.00
2202;DHT22;1107;48.654;9.250;2023-01-19T05:43:21;-2.40;1.00
2202;DHT22;1107;48.654;9.250;2023-01-19T05:45:49;-2.40;1.00
2202;DHT22;1107;48.654;9.250;2023-01-19T05:48:17;-2.40;1.00
2202;DHT22;1107;48.654;9.250;2023-01-19T05:50:44;-2.40;1.00
2202;DHT22;1107;48.654;9.250;2023-01-19T05:53:13;-2.50;1.00
2202;DHT22;1107;48.654;9.250;2023-01-19T05:55:40;-2.50;1.00
2202;DHT22;1107;48.654;9.250;2023-01-19T05:58:07;-2.50;1.00
2202;DHT22;1107;48.654;9.250;2023-01-19T06:00:34;-2.70;1.00
2202;DHT22;1107;48.654;9.250;2023-01-19T06:03:00;-2.70;1.00
2202;DHT22;1107;48.654;9.250;2023-01-19T06:05:29;-2.70;1.00
2202;DHT22;1107;48.654;9.250;2023-01-19T06:07:56;-2.70;1.00
2202;DHT22;1107;48.654;9.250;2023-01-19T06:10:23;-2.70;1.00
2202;DHT22;1107;48.654;9.250;2023-01-19T06:12:49;-2.80;1.00
2202;DHT22;1107;48.654;9.250;2023-01-19T06:15:16;-2.80;1.00
2202;DHT22;1107;48.654;9.250;2023-01-19T06:17:43;-2.80;1.00
2202;DHT22;1107;48.654;9.250;2023-01-19T06:20:10;-2.80;1.00
2202;DHT22;1107;48.654;9.250;2023-01-19T06:22:39;-2.80;1.00
2202;DHT22;1107;48.654;9.250;2023-01-19T06:25:06;-2.80;1.00
2202;DHT22;1107;48.654;9.250;2023-01-19T06:27:33;-2.80;1.00
2202;DHT22;1107;48.654;9.250;2023-01-19T06:30:00;-2.80;1.00
2202;DHT22;1107;48.654;9.250;2023-01-19T06:32:27;-2.90;1.00
2202;DHT22;1107;48.654;9.250;2023-01-19T06:34:55;-2.90;1.00
2202;DHT22;1107;48.654;9.250;2023-01-19T06:37:21;-2.90;1.00
2202;DHT22;1107;48.654;9.250;2023-01-19T06:39:52;-2.90;99.90
2202;DHT22;1107;48.654;9.250;2023-01-19T06:42:19;-2.90;99.90
2202;DHT22;1107;48.654;9.250;2023-01-19T06:44:46;-2.90;99.90
2202;DHT22;1107;48.654;9.250;2023-01-19T06:47:13;-2.90;99.90
2202;DHT22;1107;48.654;9.250;2023-01-19T06:49:40;-2.90;99.90
2202;DHT22;1107;48.654;9.250;2023-01-19T06:52:07;-2.90;99.90
2202;DHT22;1107;48.654;9.250;2023-01-19T06:54:34;-2.90;99.90
2202;DHT22;1107;48.654;9.250;2023-01-19T06:57:02;-2.90;99.90
2202;DHT22;1107;48.654;9.250;2023-01-19T06:59:29;-2.90;99.90
2202;DHT22;1107;48.654;9.250;2023-01-19T07:01:56;-2.90;99.90
2202;DHT22;1107;48.654;9.250;2023-01-19T07:04:23;-2.90;16.60
2202;DHT22;1107;48.654;9.250;2023-01-19T07:06:51;-2.80;94.60
2202;DHT22;1107;48.654;9.250;2023-01-19T07:09:18;-2.80;19.20
2202;DHT22;1107;48.654;9.250;2023-01-19T07:11:45;-2.80;97.30
2202;DHT22;1107;48.654;9.250;2023-01-19T07:14:13;-2.80;29.50
2202;DHT22;1107;48.654;9.250;2023-01-19T07:16:40;-2.80;1.00
2202;DHT22;1107;48.654;9.250;2023-01-19T07:19:07;-2.80;16.80
2202;DHT22;1107;48.654;9.250;2023-01-19T07:21:35;-2.90;99.90
2202;DHT22;1107;48.654;9.250;2023-01-19T07:24:01;-3.00;99.90
2202;DHT22;1107;48.654;9.250;2023-01-19T07:26:28;-3.00;99.90
2202;DHT22;1107;48.654;9.250;2023-01-19T07:28:55;-3.00;99.90
2202;DHT22;1107;48.654;9.250;2023-01-19T07:31:23;-3.00;99.90
2202;DHT22;1107;48.654;9.250;2023-01-19T07:33:50;-3.00;99.90
2202;DHT22;1107;48.654;9.250;2023-01-19T07:36:16;-3.00;99.90
2202;DHT22;1107;48.654;9.250;2023-01-19T07:38:43;-2.90;99.90
2202;DHT22;1107;48.654;9.250;2023-01-19T07:41:10;-2.90;99.90
2202;DHT22;1107;48.654;9.250;2023-01-19T07:43:37;-2.90;93.50
2202;DHT22;1107;48.654;9.250;2023-01-19T07:46:04;-2.90;9.50
2202;DHT22;1107;48.654;9.250;2023-01-19T07:48:32;-2.90;1.00
2202;DHT22;1107;48.654;9.250;2023-01-19T07:50:59;-3.00;74.30
2202;DHT22;1107;48.654;9.250;2023-01-19T07:53:26;-3.00;1.00
2202;DHT22;1107;48.654;9.250;2023-01-19T07:55:53;-2.80;99.90
2202;DHT22;1107;48.654;9.250;2023-01-19T07:58:21;-2.30;99.90
2202;DHT22;1107;48.654;9.250;2023-01-19T08:00:47;-1.40;99.90
2202;DHT22;1107;48.654;9.250;2023-01-19T08:03:14;-0.70;1.00
2202;DHT22;1107;48.654;9.250;2023-01-19T08:05:43;-0.80;1.00
2202;DHT22;1107;48.654;9.250;2023-01-19T08:08:10;-0.40;1.00
2202;DHT22;1107;48.654;9.250;2023-01-19T08:10:37;-0.30;1.00
2202;DHT22;1107;48.654;9.250;2023-01-19T08:13:03;0.10;99.90
2202;DHT22;1107;48.654;9.250;2023-01-19T08:15:30;0.70;99.90
2202;DHT22;1107;48.654;9.250;2023-01-19T08:17:58;0.60;1.00
2202;DHT22;1107;48.654;9.250;2023-01-19T08:20:26;0.40;1.00
2202;DHT22;1107;48.654;9.250;2023-01-19T08:22:55;0.30;49.00
2202;DHT22;1107;48.654;9.250;2023-01-19T08:25:24;1.00;17.80
2202;DHT22;1107;48.654;9.250;2023-01-19T08:27:52;1.10;1.00
2202;DHT22;1107;48.654;9.250;2023-01-19T08:30:19;1.50;1.00
2202;DHT22;1107;48.654;9.250;2023-01-19T08:32:47;1.70;1.00
2202;DHT22;1107;48.654;9.250;2023-01-19T08:35:14;1.00;1.00
2202;DHT22;1107;48.654;9.250;2023-01-19T08:37:41;0.10;1.00
2202;DHT22;1107;48.654;9.250;2023-01-19T08:40:11;-0.50;99.90
2202;DHT22;1107;48.654;9.250;2023-01-19T08:42:38;-0.90;1.00
2202;DHT22;1107;48.654;9.250;2023-01-19T08:45:06;-0.90;1.00
2202;DHT22;1107;48.654;9.250;2023-01-19T08:47:33;-1.20;1.00
2202;DHT22;1107;48.654;9.250;2023-01-19T08:50:00;-1.20;1.00
2202;DHT22;1107;48.654;9.250;2023-01-19T08:52:27;-0.60;1.00
2202;DHT22;1107;48.654;9.250;2023-01-19T08:54:54;0.30;99.90
2202;DHT22;1107;48.654;9.250;2023-01-19T08:57:23;1.80;1.00
2202;DHT22;1107;48.654;9.250;2023-01-19T08:59:49;3.30;1.00
2202;DHT22;1107;48.654;9.250;2023-01-19T09:02:16;3.50;1.00
2202;DHT22;1107;48.654;9.250;2023-01-19T09:04:43;3.20;1.00
2202;DHT22;1107;48.654;9.250;2023-01-19T09:07:09;3.20;1.00
2202;DHT22;1107;48.654;9.250;2023-01-19T09:09:36;3.60;1.00
2202;DHT22;1107;48.654;9.250;2023-01-19T09:12:07;4.00;1.00
2202;DHT22;1107;48.654;9.250;2023-01-19T09:14:35;4.10;1.00
2202;DHT22;1107;48.654;9.250;2023-01-19T09:17:02;3.70;99.90
2202;DHT22;1107;48.654;9.250;2023-01-19T09:19:30;4.00;99.90
2202;DHT22;1107;48.654;9.250;2023-01-19T09:21:57;3.50;99.90
2202;DHT22;1107;48.654;9.250;2023-01-19T09:24:24;2.20;99.90
2202;DHT22;1107;48.654;9.250;2023-01-19T09:26:51;1.10;1.00
2202;DHT22;1107;48.654;9.250;2023-01-19T09:29:18;1.00;1.00
2202;DHT22;1107;48.654;9.250;2023-01-19T09:31:46;0.90;1.00
2202;DHT22;1107;48.654;9.250;2023-01-19T09:34:13;1.00;1.00
2202;DHT22;1107;48.654;9.250;2023-01-19T09:36:39;1.20;1.00
2202;DHT22;1107;48.654;9.250;2023-01-19T09:39:06;1.10;1.00
2202;DHT22;1107;48.654;9.250;2023-01-19T09:41:34;1.00;1.00
2202;DHT22;1107;48.654;9.250;2023-01-19T09:44:03;0.60;1.00
2202;DHT22;1107;48.654;9.250;2023-01-19T09:46:32;0.50;1.00
2202;DHT22;1107;48.654;9.250;2023-01-19T09:49:02;0.60;12.10
2202;DHT22;1107;48.654;9.250;2023-01-19T09:51:32;0.60;1.00
2202;DHT22;1107;48.654;9.250;2023-01-19T09:54:02;0.70;1.00
2202;DHT22;1107;48.654;9.250;2023-01-19T09:56:30;0.50;1.00
2202;DHT22;1107;48.654;9.250;2023-01-19T09:58:57;0.70;1.00
2202;DHT22;1107;48.654;9.250;2023-01-19T10:01:35;0.50;1.00
2202;DHT22;1107;48.654;9.250;2023-01-19T10:07:07;0.70;1.00
2202;DHT22;1107;48.654;9.250;2023-01-19T10:09:36;0.90;1.00
2202;DHT22;1107;48.654;9.250;2023-01-19T10:12:07;2.10;1.00
2202;DHT22;1107;48.654;9.250;2023-01-19T10:14:38;2.30;1.00
2202;DHT22;1107;48.654;9.250;2023-01-19T10:17:07;2.00;1.00
2202;DHT22;1107;48.654;9.250;2023-01-19T10:19:41;2.10;1.00
2202;DHT22;1107;48.654;9.250;2023-01-19T10:22:15;1.90;1.00
2202;DHT22;1107;48.654;9.250;2023-01-19T10:24:44;2.00;1.00
2202;DHT22;1107;48.654;9.250;2023-01-19T10:28:31;1.80;1.00
2202;DHT22;1107;48.654;9.250;2023-01-19T10:30:58;1.60;1.00
2202;DHT22;1107;48.654;9.250;2023-01-19T10:33:25;1.40;1.00
2202;DHT22;1107;48.654;9.250;2023-01-19T10:35:52;1.30;1.00
2202;DHT22;1107;48.654;9.250;2023-01-19T10:38:19;1.20;1.00
2202;DHT22;1107;48.654;9.250;2023-01-19T10:40:48;1.00;1.00
2202;DHT22;1107;48.654;9.250;2023-01-19T10:43:38;0.90;1.00
2202;DHT22;1107;48.654;9.250;2023-01-19T10:46:06;1.00;1.00
2202;DHT22;1107;48.654;9.250;2023-01-19T10:48:36;0.90;1.00
2202;DHT22;1107;48.654;9.250;2023-01-19T10:51:04;0.90;1.00
2202;DHT22;1107;48.654;9.250;2023-01-19T10:53:31;0.80;1.00
2202;DHT22;1107;48.654;9.250;2023-01-19T10:58:41;0.60;1.00
2202;DHT22;1107;48.654;9.250;2023-01-19T11:01:11;0.60;51.30
2202;DHT22;1107;48.654;9.250;2023-01-19T11:03:38;0.40;99.90
2202;DHT22;1107;48.654;9.250;2023-01-19T11:06:17;0.50;99.90
2202;DHT22;1107;48.654;9.250;2023-01-19T11:08:45;0.60;99.90
2202;DHT22;1107;48.654;9.250;2023-01-19T11:11:12;0.60;99.90
2202;DHT22;1107;48.654;9.250;2023-01-19T11:13:40;0.70;99.90
2202;DHT22;1107;48.654;9.250;2023-01-19T11:16:12;0.50;99.90
2202;DHT22;1107;48.654;9.250;2023-01-19T11:18:41;0.60;1.00
2202;DHT22;1107;48.654;9.250;2023-01-19T11:21:09;0.50;99.90
2202;DHT22;1107;48.654;9.250;2023-01-19T11:23:37;0.60;99.90
2202;DHT22;1107;48.654;9.250;2023-01-19T11:26:07;0.60;99.90
2202;DHT22;1107;48.654;9.250;2023-01-19T11:28:35;0.80;1.00
2202;DHT22;1107;48.654;9.250;2023-01-19T11:31:15;0.90;99.90
2202;DHT22;1107;48.654;9.250;2023-01-19T11:33:47;0.90;99.90
2202;DHT22;1107;48.654;9.250;2023-01-19T11:36:15;0.80;99.90
2202;DHT22;1107;48.654;9.250;2023-01-19T11:38:42;0.80;99.90
2202;DHT22;1107;48.654;9.250;2023-01-19T11:41:14;0.70;99.90
2202;DHT22;1107;48.654;9.250;2023-01-19T11:43:42;0.70;99.90
2202;DHT22;1107;48.654;9.250;2023-01-19T11:46:11;0.80;99.90
2202;DHT22;1107;48.654;9.250;2023-01-19T11:48:38;0.80;99.90
2202;DHT22;1107;48.654;9.250;2023-01-19T11:51:08;0.70;99.90
2202;DHT22;1107;48.654;9.250;2023-01-19T11:53:37;0.90;99.90
2202;DHT22;1107;48.654;9.250;2023-01-19T11:56:05;0.90;99.90
2202;DHT22;1107;48.654;9.250;2023-01-19T11:58:37;0.90;99.90
2202;DHT22;1107;48.654;9.250;2023-01-19T12:01:05;0.90;99.90
2202;DHT22;1107;48.654;9.250;2023-01-19T12:03:36;0.90;99.90
2202;DHT22;1107;48.654;9.250;2023-01-19T12:06:03;1.10;99.90
2202;DHT22;1107;48.654;9.250;2023-01-19T12:08:33;0.90;99.90
2202;DHT22;1107;48.654;9.250;2023-01-19T12:11:00;1.30;99.90
2202;DHT22;1107;48.654;9.250;2023-01-19T12:13:28;1.20;99.90
2202;DHT22;1107;48.654;9.250;2023-01-19T12:15:56;1.40;99.90
2202;DHT22;1107;48.654;9.250;2023-01-19T12:18:24;1.40;99.90
2202;DHT22;1107;48.654;9.250;2023-01-19T12:20:55;1.30;99.90
2202;DHT22;1107;48.654;9.250;2023-01-19T12:23:26;1.30;99.90
2202;DHT22;1107;48.654;9.250;2023-01-19T12:25:58;1.40;99.90
2202;DHT22;1107;48.654;9.250;2023-01-19T12:28:28;1.20;99.90
2202;DHT22;1107;48.654;9.250;2023-01-19T12:30:55;1.10;99.90
2202;DHT22;1107;48.654;9.250;2023-01-19T12:33:30;1.10;1.00
2202;DHT22;1107;48.654;9.250;2023-01-19T12:36:01;1.20;1.00
2202;DHT22;1107;48.654;9.250;2023-01-19T12:38:32;1.20;1.00
2202;DHT22;1107;48.654;9.250;2023-01-19T12:43:45;1.30;1.00
2202;DHT22;1107;48.654;9.250;2023-01-19T12:46:18;1.20;1.00
2202;DHT22;1107;48.654;9.250;2023-01-19T12:48:45;1.20;1.00
2202;DHT22;1107;48.654;9.250;2023-01-19T12:51:22;1.20;1.00
2202;DHT22;1107;48.654;9.250;2023-01-19T12:53:52;1.10;1.00
2202;DHT22;1107;48.654;9.250;2023-01-19T12:56:19;1.10;1.00
2202;DHT22;1107;48.654;9.250;2023-01-19T12:58:52;1.10;1.00
2202;DHT22;1107;48.654;9.250;2023-01-19T13:01:19;1.10;1.00
2202;DHT22;1107;48.654;9.250;2023-01-19T13:03:59;1.10;1.00
2202;DHT22;1107;48.654;9.250;2023-01-19T13:12:19;1.10;99.90
2202;DHT22;1107;48.654;9.250;2023-01-19T13:14:46;1.10;99.90
2202;DHT22;1107;48.654;9.250;2023-01-19T13:17:25;1.10;99.90
2202;DHT22;1107;48.654;9.250;2023-01-19T13:25:31;1.10;99.90
2202;DHT22;1107;48.654;9.250;2023-01-19T13:28:01;1.10;99.90
2202;DHT22;1107;48.654;9.250;2023-01-19T13:30:32;1.10;1.00
2202;DHT22;1107;48.654;9.250;2023-01-19T13:33:01;1.00;99.90
2202;DHT22;1107;48.654;9.250;2023-01-19T13:35:29;1.00;1.00
2202;DHT22;1107;48.654;9.250;2023-01-19T13:37:56;0.90;1.00
2202;DHT22;1107;48.654;9.250;2023-01-19T13:40:24;0.80;1.00
2202;DHT22;1107;48.654;9.250;2023-01-19T13:42:54;0.80;1.00
2202;DHT22;1107;48.654;9.250;2023-01-19T13:45:27;0.80;99.90
2202;DHT22;1107;48.654;9.250;2023-01-19T13:47:55;0.80;1.00
2202;DHT22;1107;48.654;9.250;2023-01-19T13:50:23;0.90;1.00
2202;DHT22;1107;48.654;9.250;2023-01-19T13:52:51;0.80;1.00
2202;DHT22;1107;48.654;9.250;2023-01-19T13:55:20;0.80;1.00
2202;DHT22;1107;48.654;9.250;2023-01-19T13:57:47;0.90;1.00
2202;DHT22;1107;48.654;9.250;2023-01-19T14:00:15;0.90;1.00
2202;DHT22;1107;48.654;9.250;2023-01-19T14:02:51;0.90;1.00
2202;DHT22;1107;48.654;9.250;2023-01-19T14:05:20;0.90;1.00
2202;DHT22;1107;48.654;9.250;2023-01-19T14:07:47;0.90;99.90
2202;DHT22;1107;48.654;9.250;2023-01-19T14:10:14;0.80;1.00
2202;DHT22;1107;48.654;9.250;2023-01-19T14:12:41;0.90;1.00
2202;DHT22;1107;48.654;9.250;2023-01-19T14:15:08;0.90;1.00
2202;DHT22;1107;48.654;9.250;2023-01-19T14:17:39;0.90;1.00
2202;DHT22;1107;48.654;9.250;2023-01-19T14:22:49;0.90;99.90
2202;DHT22;1107;48.654;9.250;2023-01-19T14:25:28;0.90;1.00
2202;DHT22;1107;48.654;9.250;2023-01-19T14:30:51;0.90;1.00
2202;DHT22;1107;48.654;9.250;2023-01-19T14:33:33;0.90;97.50
2202;DHT22;1107;48.654;9.250;2023-01-19T14:36:10;1.00;99.90
2202;DHT22;1107;48.654;9.250;2023-01-19T14:38:47;1.00;1.00
2202;DHT22;1107;48.654;9.250;2023-01-19T14:41:20;1.00;99.90
2202;DHT22;1107;48.654;9.250;2023-01-19T14:43:48;1.00;65.10
2202;DHT22;1107;48.654;9.250;2023-01-19T14:46:16;1.10;1.00
2202;DHT22;1107;48.654;9.250;2023-01-19T14:48:44;1.10;13.50
2202;DHT22;1107;48.654;9.250;2023-01-19T14:51:11;1.10;99.90
2202;DHT22;1107;48.654;9.250;2023-01-19T14:53:44;1.10;1.00
2202;DHT22;1107;48.654;9.250;2023-01-19T14:56:13;1.20;99.90
2202;DHT22;1107;48.654;9.250;2023-01-19T14:58:48;1.20;1.00
2202;DHT22;1107;48.654;9.250;2023-01-19T15:01:15;1.30;28.30
2202;DHT22;1107;48.654;9.250;2023-01-19T15:03:42;1.30;1.00
2202;DHT22;1107;48.654;9.250;2023-01-19T15:06:09;1.30;99.90
2202;DHT22;1107;48.654;9.250;2023-01-19T15:08:37;1.30;99.90
2202;DHT22;1107;48.654;9.250;2023-01-19T15:11:05;1.30;99.90
2202;DHT22;1107;48.654;9.250;2023-01-19T15:13:36;1.30;1.00
2202;DHT22;1107;48.654;9.250;2023-01-19T15:16:03;1.30;1.00
2202;DHT22;1107;48.654;9.250;2023-01-19T15:18:30;1.40;1.00
2202;DHT22;1107;48.654;9.250;2023-01-19T15:20:57;1.40;1.00
2202;DHT22;1107;48.654;9.250;2023-01-19T15:23:27;1.30;99.90
2202;DHT22;1107;48.654;9.250;2023-01-19T15:25:57;1.30;94.10
2202;DHT22;1107;48.654;9.250;2023-01-19T15:28:24;1.30;99.90
2202;DHT22;1107;48.654;9.250;2023-01-19T15:30:52;1.30;47.60
2202;DHT22;1107;48.654;9.250;2023-01-19T15:33:19;1.30;99.90
2202;DHT22;1107;48.654;9.250;2023-01-19T15:35:46;1.20;1.00
2202;DHT22;1107;48.654;9.250;2023-01-19T15:38:13;1.20;1.00
2202;DHT22;1107;48.654;9.250;2023-01-19T15:40:40;1.20;1.00
2202;DHT22;1107;48.654;9.250;2023-01-19T15:43:08;1.20;19.10
2202;DHT22;1107;48.654;9.250;2023-01-19T15:45:35;1.20;99.90
2202;DHT22;1107;48.654;9.250;2023-01-19T15:48:04;1.20;99.90
2202;DHT22;1107;48.654;9.250;2023-01-19T15:50:31;1.20;1.00
2202;DHT22;1107;48.654;9.250;2023-01-19T15:52:58;1.20;1.00
2202;DHT22;1107;48.654;9.250;2023-01-19T15:55:25;1.10;1.00
2202;DHT22;1107;48.654;9.250;2023-01-19T15:57:52;1.10;1.00
2202;DHT22;1107;48.654;9.250;2023-01-19T16:00:22;1.10;1.00
2202;DHT22;1107;48.654;9.250;2023-01-19T16:02:49;1.20;1.00
2202;DHT22;1107;48.654;9.250;2023-01-19T16:05:17;1.10;1.00
2202;DHT22;1107;48.654;9.250;2023-01-19T16:07:44;1.10;1.00
2202;DHT22;1107;48.654;9.250;2023-01-19T16:10:11;1.10;1.00
2202;DHT22;1107;48.654;9.250;2023-01-19T16:12:38;1.10;1.00
2202;DHT22;1107;48.654;9.250;2023-01-19T16:15:05;1.20;79.90
2202;DHT22;1107;48.654;9.250;2023-01-19T16:17:32;1.10;1.00
2202;DHT22;1107;48.654;9.250;2023-01-19T16:19:58;1.00;1.00
2202;DHT22;1107;48.654;9.250;2023-01-19T16:22:26;1.10;1.00
2202;DHT22;1107;48.654;9.250;2023-01-19T16:24:53;1.10;99.90
2202;DHT22;1107;48.654;9.250;2023-01-19T16:27:20;1.20;1.00
2202;DHT22;1107;48.654;9.250;2023-01-19T16:29:47;1.10;99.90
2202;DHT22;1107;48.654;9.250;2023-01-19T16:32:14;1.10;1.00
2202;DHT22;1107;48.654;9.250;2023-01-19T16:34:41;1.10;26.60
2202;DHT22;1107;48.654;9.250;2023-01-19T16:37:07;1.10;1.00
2202;DHT22;1107;48.654;9.250;2023-01-19T16:39:35;1.10;1.00
2202;DHT22;1107;48.654;9.250;2023-01-19T16:42:02;1.10;99.90
2202;DHT22;1107;48.654;9.250;2023-01-19T16:44:29;1.10;1.00
2202;DHT22;1107;48.654;9.250;2023-01-19T16:46:56;1.10;1.00
2202;DHT22;1107;48.654;9.250;2023-01-19T16:49:24;1.10;1.00
2202;DHT22;1107;48.654;9.250;2023-01-19T16:51:51;1.10;99.90
2202;DHT22;1107;48.654;9.250;2023-01-19T16:54:20;1.10;99.90
2202;DHT22;1107;48.654;9.250;2023-01-19T16:56:48;1.10;99.90
2202;DHT22;1107;48.654;9.250;2023-01-19T16:59:15;1.10;99.90